Wapella, Illinois
Current Conditions -  °F | °C
As of 11:56 PM on Tuesday 21 Oct 2014 (Local Time) from KBMI Reporting Station
Clear Clear  
Wind Chill: 35°   Ceiling: Unl
Heat Index: 39°   Visibility: 10mi
Dew Point: 37°   Wind: 5mph
Humidity: 93%   Direction: 50°NE
Pressure: 30.25"   Gusts: NA
Location:  40.22°N, 88.96°W
Report Text: KBMI 220456Z AUTO 05004KT 10SM CLR 04/03 A3025 RMK AO2 T00380027 SLP250
Loading
Personal Weather Stations






























Interactive Weather Map
Tropical Storm Tracking
New forecast layout! Learn more

10-Day Weather Forecast

Advertisements
Track Severe Weather on mobile